createdAt,value
2018-01-31T01:53:30.123Z,10.60
2018-01-31T01:55:58.581Z,10.70
2018-01-31T01:58:26.251Z,10.20
2018-01-31T02:00:53.923Z,9.43
2018-01-31T02:03:21.630Z,9.60
2018-01-31T02:05:49.294Z,9.90
2018-01-31T02:08:16.951Z,11.17
2018-01-31T02:10:44.818Z,9.50
2018-01-31T02:13:12.427Z,8.43
2018-01-31T02:15:40.123Z,8.83
2018-01-31T02:18:07.795Z,8.73
2018-01-31T02:20:35.474Z,8.63
2018-01-31T02:23:03.150Z,8.53
2018-01-31T02:25:30.798Z,8.63
2018-01-31T02:27:58.478Z,7.87
2018-01-31T02:30:26.076Z,9.00
2018-01-31T02:32:53.666Z,8.33
2018-01-31T02:35:21.296Z,8.27
2018-01-31T02:37:48.961Z,8.77
2018-01-31T02:40:16.812Z,7.73
2018-01-31T02:42:44.479Z,7.90
2018-01-31T02:45:12.143Z,7.90
2018-01-31T02:47:39.790Z,7.70
2018-01-31T02:50:07.426Z,7.57
2018-01-31T02:52:35.090Z,8.20
2018-01-31T02:55:02.765Z,7.57
2018-01-31T02:57:30.445Z,7.50
2018-01-31T02:59:58.091Z,7.83
2018-01-31T03:02:25.739Z,8.70
2018-01-31T03:04:53.425Z,8.67
2018-01-31T03:07:21.102Z,9.80
2018-01-31T03:09:49.968Z,9.10
2018-01-31T03:12:17.601Z,9.57
2018-01-31T03:14:45.287Z,8.77
2018-01-31T03:17:12.938Z,10.67
2018-01-31T03:19:40.606Z,9.67
2018-01-31T03:22:08.281Z,10.50
2018-01-31T03:24:36.522Z,10.00
2018-01-31T03:27:04.988Z,11.00
2018-01-31T03:29:32.637Z,10.23
2018-01-31T03:32:00.483Z,11.87
2018-01-31T03:34:28.167Z,11.60
2018-01-31T03:36:55.844Z,13.07
2018-01-31T03:39:23.472Z,12.80
2018-01-31T03:41:51.138Z,12.17
2018-01-31T03:44:18.822Z,11.70
2018-01-31T03:46:46.497Z,12.17
2018-01-31T03:49:14.160Z,11.17
2018-01-31T03:51:41.823Z,11.90
2018-01-31T03:54:09.483Z,11.70
2018-01-31T03:56:37.166Z,12.67
2018-01-31T03:59:05.606Z,12.13
2018-01-31T04:01:33.329Z,11.83
2018-01-31T04:04:00.991Z,11.83
2018-01-31T04:06:28.624Z,13.10
2018-01-31T04:08:56.262Z,13.10
2018-01-31T04:11:23.917Z,12.60
2018-01-31T04:13:51.588Z,13.73
2018-01-31T04:16:19.245Z,13.80
2018-01-31T04:18:46.952Z,13.70
2018-01-31T04:21:14.606Z,14.23
2018-01-31T04:23:42.256Z,14.07
2018-01-31T04:26:09.919Z,13.10
2018-01-31T04:28:37.575Z,15.10
2018-01-31T04:31:05.342Z,14.53
2018-01-31T04:33:32.944Z,14.90
2018-01-31T04:36:00.608Z,14.70
2018-01-31T04:38:28.270Z,15.70
2018-01-31T04:40:56.326Z,14.50
2018-01-31T04:43:24.750Z,14.53
2018-01-31T04:45:52.433Z,14.30
2018-01-31T04:48:20.098Z,12.63
2018-01-31T04:50:47.768Z,13.13
2018-01-31T04:53:15.450Z,13.50
2018-01-31T04:55:44.103Z,13.13
2018-01-31T04:58:11.774Z,12.80
2018-01-31T05:00:40.665Z,11.37
2018-01-31T05:03:08.309Z,11.63
2018-01-31T05:05:35.973Z,12.73
2018-01-31T05:08:03.680Z,12.60
2018-01-31T05:10:31.361Z,14.38
2018-01-31T05:12:59.934Z,11.80
2018-01-31T05:15:27.609Z,12.40
2018-01-31T05:17:55.303Z,12.17
2018-01-31T05:20:22.938Z,11.90
2018-01-31T05:22:50.604Z,10.97
2018-01-31T05:25:18.214Z,11.03
2018-01-31T05:27:45.818Z,10.90
2018-01-31T05:30:14.376Z,11.10
2018-01-31T05:32:41.974Z,10.67
2018-01-31T05:35:09.631Z,10.63
2018-01-31T05:37:38.065Z,10.83
2018-01-31T05:40:05.640Z,10.70
2018-01-31T05:42:33.309Z,11.53
2018-01-31T05:45:01.005Z,9.57
2018-01-31T05:47:28.667Z,9.77
2018-01-31T05:49:56.332Z,9.53
2018-01-31T05:52:24.010Z,10.37
2018-01-31T05:54:51.655Z,10.30
2018-01-31T05:57:19.336Z,8.50
2018-01-31T05:59:47.008Z,8.97
2018-01-31T06:02:14.669Z,8.83
2018-01-31T06:04:42.313Z,8.37
2018-01-31T06:07:09.985Z,8.70
2018-01-31T06:09:37.647Z,9.33
2018-01-31T06:12:05.333Z,8.43
2018-01-31T06:14:32.999Z,10.00
2018-01-31T06:17:00.577Z,9.43
2018-01-31T06:19:28.236Z,9.53
2018-01-31T06:21:58.086Z,10.00
2018-01-31T06:24:26.798Z,10.00
2018-01-31T06:26:54.434Z,9.40
2018-01-31T06:29:22.102Z,9.07
2018-01-31T06:31:49.775Z,8.60
2018-01-31T06:34:18.223Z,9.33
2018-01-31T06:36:45.876Z,8.93
2018-01-31T06:39:13.549Z,10.90
2018-01-31T06:41:41.219Z,10.70
2018-01-31T06:44:08.880Z,10.23
2018-01-31T06:46:36.554Z,9.17
2018-01-31T06:49:04.302Z,10.47
2018-01-31T06:51:34.124Z,11.50
2018-01-31T06:54:01.777Z,10.07
2018-01-31T06:56:29.375Z,10.70
2018-01-31T06:58:57.018Z,11.67
2018-01-31T07:01:24.610Z,12.00
2018-01-31T07:03:52.269Z,12.13
2018-01-31T07:06:19.952Z,11.90
2018-01-31T07:08:47.623Z,11.83
2018-01-31T07:11:15.290Z,11.17
2018-01-31T07:13:42.981Z,11.53
2018-01-31T07:16:10.661Z,12.33
2018-01-31T07:18:38.331Z,11.73
2018-01-31T07:21:06.976Z,11.83
2018-01-31T07:23:34.658Z,12.47
2018-01-31T07:26:02.318Z,13.67
2018-01-31T07:28:29.981Z,13.73
2018-01-31T07:30:57.658Z,12.97
2018-01-31T07:33:25.327Z,13.17
2018-01-31T07:35:52.984Z,12.03
2018-01-31T07:38:20.642Z,13.83
2018-01-31T07:40:48.290Z,14.73
2018-01-31T07:43:15.970Z,15.03
2018-01-31T07:45:43.642Z,16.23
2018-01-31T07:48:12.101Z,16.57
2018-01-31T07:50:42.826Z,16.07
2018-01-31T07:53:10.484Z,15.67
2018-01-31T07:55:38.105Z,15.00
2018-01-31T07:58:05.762Z,15.13
2018-01-31T08:00:33.359Z,14.90
2018-01-31T08:03:00.956Z,15.97
2018-01-31T08:05:28.575Z,17.07
2018-01-31T08:07:56.181Z,16.30
2018-01-31T08:10:23.794Z,16.03
2018-01-31T08:12:51.441Z,14.70
2018-01-31T08:15:19.132Z,14.90
2018-01-31T08:17:46.822Z,14.93
2018-01-31T08:20:15.492Z,13.20
2018-01-31T08:22:43.150Z,12.53
2018-01-31T08:25:11.568Z,12.30
2018-01-31T08:27:39.217Z,11.87
2018-01-31T08:30:06.828Z,11.50
2018-01-31T08:32:34.478Z,12.43
2018-01-31T08:35:02.164Z,11.70
2018-01-31T08:37:29.848Z,11.57
2018-01-31T08:39:57.534Z,11.83
2018-01-31T08:42:25.197Z,11.27
2018-01-31T08:44:52.870Z,11.03
2018-01-31T08:47:20.526Z,11.70
2018-01-31T08:49:51.428Z,11.30
2018-01-31T08:52:19.085Z,10.73
2018-01-31T08:54:46.790Z,12.03
2018-01-31T08:57:14.461Z,11.27
2018-01-31T08:59:42.131Z,9.93
2018-01-31T09:02:09.814Z,10.43
2018-01-31T09:04:37.488Z,8.73
2018-01-31T09:07:05.274Z,8.30
2018-01-31T09:09:32.955Z,8.60
2018-01-31T09:12:01.552Z,8.80
2018-01-31T09:14:29.204Z,9.23
2018-01-31T09:16:56.865Z,9.03
2018-01-31T09:19:24.547Z,9.97
2018-01-31T09:21:52.206Z,9.93
2018-01-31T09:24:19.858Z,9.20
2018-01-31T09:26:47.519Z,8.50
2018-01-31T09:29:15.184Z,8.30
2018-01-31T09:31:42.845Z,7.77
2018-01-31T09:34:10.524Z,7.60
2018-01-31T09:36:38.185Z,7.80
2018-01-31T09:39:06.003Z,5.47
2018-01-31T09:41:33.902Z,7.70
2018-01-31T09:44:01.577Z,8.40
2018-01-31T09:46:29.245Z,7.67
2018-01-31T09:48:57.895Z,8.43
2018-01-31T09:51:26.271Z,8.40
2018-01-31T09:54:02.367Z,6.47
2018-01-31T09:56:36.592Z,6.60
2018-01-31T09:59:12.979Z,7.67
2018-01-31T10:01:45.275Z,8.17
2018-01-31T10:04:18.056Z,6.90
2018-01-31T10:06:50.663Z,5.63
2018-01-31T10:09:18.558Z,6.00
2018-01-31T10:11:46.551Z,6.23
2018-01-31T10:14:14.617Z,6.07
2018-01-31T10:16:42.822Z,6.40
2018-01-31T10:19:10.722Z,6.70
2018-01-31T10:21:38.368Z,7.60
2018-01-31T10:24:06.126Z,7.30
2018-01-31T10:26:33.764Z,6.73
2018-01-31T10:29:01.490Z,6.87
2018-01-31T10:31:30.355Z,7.83
2018-01-31T10:33:58.041Z,8.07
2018-01-31T10:36:25.648Z,7.43
2018-01-31T10:38:54.053Z,8.43
2018-01-31T10:41:21.705Z,8.13
2018-01-31T10:43:49.363Z,7.83
2018-01-31T10:46:17.064Z,8.20
2018-01-31T10:48:44.675Z,6.60
2018-01-31T10:51:13.046Z,7.57
2018-01-31T10:58:35.953Z,8.33
2018-01-31T11:01:06.631Z,8.30
2018-01-31T11:03:34.311Z,8.83
2018-01-31T11:06:01.964Z,8.77
2018-01-31T11:08:29.645Z,8.37
2018-01-31T11:10:57.409Z,8.80
2018-01-31T11:13:25.077Z,7.30
2018-01-31T11:15:52.777Z,7.93
2018-01-31T11:18:20.431Z,7.50
2018-01-31T11:20:48.125Z,8.53
2018-01-31T11:23:15.785Z,8.43
2018-01-31T11:25:43.470Z,7.13
2018-01-31T11:28:11.539Z,7.43
2018-01-31T11:30:39.221Z,8.23
2018-01-31T11:33:06.914Z,8.10
2018-01-31T11:35:35.327Z,7.10
2018-01-31T11:38:02.973Z,7.60
2018-01-31T11:40:30.684Z,7.13
2018-01-31T11:42:58.363Z,7.43
2018-01-31T11:45:26.050Z,8.20
2018-01-31T11:47:54.450Z,7.47
2018-01-31T11:50:22.101Z,7.57
2018-01-31T11:52:49.763Z,8.40
2018-01-31T11:55:18.205Z,8.27
2018-01-31T11:57:45.911Z,7.90
2018-01-31T12:00:16.732Z,6.20
2018-01-31T12:02:44.723Z,6.27
2018-01-31T12:05:13.172Z,6.40
2018-01-31T12:07:40.825Z,5.63
2018-01-31T12:10:08.513Z,5.10
2018-01-31T12:12:48.895Z,5.10
2018-01-31T12:15:24.258Z,5.67
2018-01-31T12:17:51.939Z,5.03
2018-01-31T12:20:31.280Z,4.83
2018-01-31T12:23:10.682Z,4.67
2018-01-31T12:25:50.131Z,4.60
2018-01-31T12:28:29.667Z,4.50
2018-01-31T12:31:09.045Z,3.90
2018-01-31T12:33:48.570Z,4.20
2018-01-31T12:36:28.577Z,4.33
2018-01-31T12:38:59.354Z,4.53
2018-01-31T12:41:26.538Z,4.70
2018-01-31T12:43:53.683Z,3.97
2018-01-31T12:46:33.181Z,1.60
2018-01-31T12:49:01.795Z,1.00
2018-01-31T12:51:48.865Z,1.00
2018-01-31T12:54:32.726Z,1.13
2018-01-31T12:57:12.667Z,1.17
2018-01-31T12:59:52.069Z,1.10
2018-01-31T13:02:26.334Z,0.77
2018-01-31T13:05:05.835Z,1.53
2018-01-31T13:07:49.987Z,1.20
2018-01-31T13:10:30.378Z,1.20
2018-01-31T13:13:09.906Z,1.10
2018-01-31T13:18:52.992Z,1.17
2018-01-31T13:21:32.517Z,1.53
2018-01-31T13:24:23.895Z,1.20
2018-01-31T13:27:03.147Z,1.30
2018-01-31T13:29:31.598Z,1.20
2018-01-31T13:32:11.423Z,1.03
2018-01-31T13:34:50.635Z,1.23
2018-01-31T13:37:35.808Z,1.10
2018-01-31T13:40:07.603Z,1.30
2018-01-31T13:45:50.368Z,1.10
2018-01-31T13:48:29.793Z,1.20
2018-01-31T13:51:09.266Z,1.13
2018-01-31T13:53:48.594Z,1.40
2018-01-31T13:56:28.769Z,1.07
2018-01-31T14:02:11.922Z,1.47
2018-01-31T14:04:51.431Z,1.50
2018-01-31T14:07:30.939Z,1.50
2018-01-31T14:10:10.387Z,1.53
2018-01-31T14:12:49.912Z,1.40
2018-01-31T14:15:29.544Z,1.03
2018-01-31T14:18:08.981Z,1.20
2018-01-31T14:20:48.429Z,0.90
2018-01-31T14:23:27.684Z,0.93
2018-01-31T14:26:07.190Z,1.10
2018-01-31T14:28:46.583Z,0.90
2018-01-31T14:31:25.974Z,1.40
2018-01-31T14:34:05.320Z,1.07
2018-01-31T14:36:32.419Z,1.27
2018-01-31T14:38:59.579Z,1.00
2018-01-31T14:41:27.499Z,1.30
2018-01-31T14:43:54.604Z,1.03
2018-01-31T14:46:22.531Z,1.30
2018-01-31T14:48:49.705Z,1.20
2018-01-31T14:51:16.862Z,1.80
2018-01-31T14:53:44.024Z,1.60
2018-01-31T14:56:11.163Z,1.70
2018-01-31T14:58:39.059Z,1.60
2018-01-31T15:01:07.250Z,2.23
2018-01-31T15:03:34.405Z,2.40
2018-01-31T15:06:01.566Z,2.37
2018-01-31T15:08:28.690Z,2.23
2018-01-31T15:10:55.840Z,2.30
2018-01-31T15:13:22.980Z,2.70
2018-01-31T15:15:50.116Z,2.70
2018-01-31T15:18:17.206Z,2.30
2018-01-31T15:20:44.328Z,2.80
2018-01-31T15:23:12.206Z,2.40
2018-01-31T15:25:39.371Z,2.50
2018-01-31T15:28:06.508Z,2.43
2018-01-31T15:30:34.541Z,2.87
2018-01-31T15:33:01.697Z,2.20
2018-01-31T15:35:28.847Z,2.80
2018-01-31T15:37:55.997Z,2.60
2018-01-31T15:40:23.148Z,3.27
2018-01-31T15:42:50.292Z,2.97
2018-01-31T15:45:17.445Z,3.40
2018-01-31T15:47:44.602Z,3.53
2018-01-31T15:50:11.767Z,3.23
2018-01-31T15:52:38.901Z,2.80
2018-01-31T15:55:06.062Z,2.93
2018-01-31T15:57:33.221Z,2.80
2018-01-31T16:00:02.251Z,2.57
2018-01-31T16:02:29.388Z,2.77
2018-01-31T16:04:56.518Z,3.10
2018-01-31T16:07:23.673Z,3.17
2018-01-31T16:09:50.816Z,3.60
2018-01-31T16:12:18.745Z,3.63
2018-01-31T16:14:48.773Z,3.30
2018-01-31T16:17:22.354Z,3.17
2018-01-31T16:20:06.674Z,4.10
2018-01-31T16:22:40.068Z,3.90
2018-01-31T16:25:07.915Z,4.80
2018-01-31T16:27:47.374Z,4.10
2018-01-31T16:30:21.850Z,3.77
2018-01-31T16:33:01.944Z,3.10
2018-01-31T16:35:29.621Z,3.73
2018-01-31T16:37:57.298Z,3.47
2018-01-31T16:40:24.949Z,3.10
2018-01-31T16:42:52.619Z,3.60
2018-01-31T16:45:20.334Z,3.27
2018-01-31T16:47:47.980Z,3.50
2018-01-31T16:50:16.837Z,3.40
2018-01-31T16:52:44.511Z,3.80
2018-01-31T16:55:12.165Z,3.40
2018-01-31T16:57:39.846Z,3.80
2018-01-31T17:00:07.532Z,3.20
2018-01-31T17:02:35.157Z,3.73
2018-01-31T17:05:02.833Z,0.70
2018-01-31T17:07:30.917Z,1.23
2018-01-31T17:09:58.583Z,1.30
2018-01-31T17:12:26.239Z,0.90
2018-01-31T17:14:53.926Z,0.80
2018-01-31T17:17:21.641Z,0.83
2018-01-31T17:19:50.576Z,0.97
2018-01-31T17:22:18.210Z,0.80
2018-01-31T17:24:45.872Z,0.70
2018-01-31T17:27:13.523Z,1.20
2018-01-31T17:29:41.233Z,1.93
2018-01-31T17:32:08.892Z,1.30
2018-01-31T17:34:36.574Z,1.20
2018-01-31T17:37:04.246Z,1.00
2018-01-31T17:39:31.913Z,1.40
2018-01-31T17:42:00.541Z,1.80
2018-01-31T17:44:28.240Z,2.23
2018-01-31T17:46:55.919Z,2.73
2018-01-31T17:49:23.566Z,3.60
2018-01-31T17:51:51.209Z,2.83
2018-01-31T17:54:18.882Z,2.30
2018-01-31T17:56:46.548Z,2.43
2018-01-31T17:59:14.233Z,2.37
2018-01-31T18:01:42.083Z,2.10
2018-01-31T18:04:09.784Z,2.40
2018-01-31T18:06:37.429Z,1.93
2018-01-31T18:09:05.242Z,1.80
2018-01-31T18:11:36.095Z,1.70
2018-01-31T18:14:03.920Z,2.00
2018-01-31T18:16:31.677Z,2.13
2018-01-31T18:19:00.625Z,2.43
2018-01-31T18:21:28.405Z,2.60
2018-01-31T18:23:56.068Z,2.30
2018-01-31T18:26:23.952Z,2.23
2018-01-31T18:28:51.609Z,2.20
2018-01-31T18:31:19.234Z,2.40
2018-01-31T18:33:46.952Z,2.20
2018-01-31T18:36:15.020Z,2.20
2018-01-31T18:38:42.763Z,2.00
2018-01-31T18:41:11.356Z,2.20
2018-01-31T18:43:39.021Z,1.60
2018-01-31T18:46:06.682Z,1.70
2018-01-31T18:48:34.370Z,1.63
2018-01-31T18:51:02.828Z,1.97
2018-01-31T18:53:30.789Z,2.00
2018-01-31T18:55:58.486Z,1.93
2018-01-31T18:58:26.118Z,2.13
2018-01-31T19:00:53.772Z,1.73
2018-01-31T19:03:21.426Z,2.00
2018-01-31T19:05:49.099Z,2.20
2018-01-31T19:08:16.912Z,1.60
2018-01-31T19:10:45.576Z,1.60
2018-01-31T19:13:13.252Z,2.00
2018-01-31T19:15:40.893Z,2.00
2018-01-31T19:18:08.548Z,2.73
2018-01-31T19:20:36.318Z,2.13
2018-01-31T19:23:03.990Z,2.20
2018-01-31T19:25:31.637Z,2.50
2018-01-31T19:27:59.299Z,2.53
2018-01-31T19:30:26.959Z,2.80
2018-01-31T19:32:54.631Z,2.30
2018-01-31T19:35:22.296Z,2.90
2018-01-31T19:37:49.947Z,3.10
2018-01-31T19:40:18.682Z,3.30
2018-01-31T19:42:47.148Z,2.90
2018-01-31T19:45:14.797Z,3.37
2018-01-31T19:47:42.463Z,3.40
2018-01-31T19:50:10.113Z,3.97
2018-01-31T19:52:37.789Z,3.70
2018-01-31T19:55:05.447Z,3.90
2018-01-31T19:57:33.138Z,3.70
2018-01-31T20:00:01.570Z,3.60
2018-01-31T20:02:29.230Z,3.93
2018-01-31T20:04:56.863Z,4.00
2018-01-31T20:07:24.559Z,3.93
2018-01-31T20:09:55.882Z,4.00
2018-01-31T20:12:23.552Z,4.70
2018-01-31T20:14:51.232Z,4.97
2018-01-31T20:17:18.837Z,5.57
2018-01-31T20:19:47.258Z,5.60
2018-01-31T20:22:15.355Z,5.83
2018-01-31T20:24:42.991Z,6.10
2018-01-31T20:27:10.699Z,6.67
2018-01-31T20:29:38.367Z,6.37
2018-01-31T20:32:06.043Z,6.30
2018-01-31T20:34:33.737Z,6.40
2018-01-31T20:37:01.449Z,5.97
2018-01-31T20:39:29.114Z,5.80
2018-01-31T20:41:56.765Z,6.23
2018-01-31T20:44:24.416Z,5.10
2018-01-31T20:46:52.078Z,5.53
2018-01-31T20:49:19.739Z,4.97
2018-01-31T20:51:47.384Z,5.40
2018-01-31T20:54:15.024Z,4.80
2018-01-31T20:56:43.469Z,4.60
2018-01-31T20:59:11.132Z,5.10
2018-01-31T21:01:42.495Z,5.37
2018-01-31T21:04:10.150Z,5.17
2018-01-31T21:06:37.808Z,5.67
2018-01-31T21:09:05.475Z,4.90
2018-01-31T21:11:33.121Z,5.80
2018-01-31T21:14:00.812Z,6.67
2018-01-31T21:16:28.476Z,6.97
2018-01-31T21:18:56.137Z,7.20
2018-01-31T21:21:23.816Z,7.37
2018-01-31T21:23:52.269Z,7.63
2018-01-31T21:26:19.953Z,7.40
2018-01-31T21:28:47.641Z,6.70
2018-01-31T21:31:16.231Z,7.60
2018-01-31T21:33:43.891Z,7.60
2018-01-31T21:36:12.335Z,8.50
2018-01-31T21:38:39.988Z,7.97
2018-01-31T21:41:07.652Z,8.40
2018-01-31T21:43:35.298Z,3.23
2018-01-31T21:46:02.972Z,2.00
2018-01-31T21:48:30.545Z,1.77
2018-01-31T21:50:58.197Z,2.40
2018-01-31T21:53:25.909Z,2.30
2018-01-31T21:55:53.570Z,2.43
2018-01-31T21:58:21.976Z,3.20
2018-01-31T22:00:51.829Z,2.80
2018-01-31T22:03:19.497Z,2.27
2018-01-31T22:05:47.155Z,3.00
2018-01-31T22:08:15.495Z,2.90
2018-01-31T22:10:43.529Z,2.83
2018-01-31T22:13:11.178Z,2.80
2018-01-31T22:15:38.914Z,2.67
2018-01-31T22:18:06.576Z,2.50
2018-01-31T22:20:34.256Z,2.70
2018-01-31T22:23:01.910Z,2.30
2018-01-31T22:25:29.569Z,2.50
2018-01-31T22:27:57.677Z,2.60
2018-01-31T22:30:28.680Z,2.63
2018-01-31T22:32:56.320Z,2.30
2018-01-31T22:35:23.991Z,2.57
2018-01-31T22:37:52.032Z,2.10
2018-01-31T22:40:19.741Z,1.93
2018-01-31T22:42:47.718Z,2.07
2018-01-31T22:45:15.432Z,2.07
2018-01-31T22:47:43.105Z,2.20
2018-01-31T22:50:10.770Z,2.53
2018-01-31T22:52:38.604Z,2.40
2018-01-31T22:55:06.267Z,1.77
2018-01-31T22:57:33.974Z,2.40
2018-01-31T23:00:01.905Z,2.20
2018-01-31T23:02:29.677Z,2.40
2018-01-31T23:04:57.540Z,2.50
2018-01-31T23:07:25.183Z,2.53
2018-01-31T23:09:53.030Z,2.73
2018-01-31T23:12:24.610Z,3.10
2018-01-31T23:14:54.134Z,3.20
2018-01-31T23:17:28.192Z,3.90
2018-01-31T23:19:55.881Z,4.50
2018-01-31T23:22:23.541Z,4.87
2018-01-31T23:24:51.229Z,4.03
2018-01-31T23:27:18.895Z,4.80
2018-01-31T23:29:46.536Z,4.80
2018-01-31T23:32:14.228Z,4.83
2018-01-31T23:34:41.874Z,5.50
2018-01-31T23:37:09.541Z,5.47
2018-01-31T23:39:37.209Z,5.43
2018-01-31T23:42:04.867Z,5.00
2018-01-31T23:44:32.528Z,5.57
2018-01-31T23:47:00.189Z,7.13
2018-01-31T23:49:27.858Z,6.70
2018-01-31T23:51:55.520Z,8.20
2018-01-31T23:54:23.209Z,9.23
2018-01-31T23:56:50.841Z,7.20
2018-01-31T23:59:18.491Z,7.43
